createdAt,value
2023-03-12T00:07:44.545Z,11.40
2023-03-12T00:22:48.996Z,5.57
2023-03-12T00:37:53.504Z,5.33
2023-03-12T00:52:57.903Z,10.03
2023-03-12T01:08:02.397Z,8.20
2023-03-12T01:23:06.924Z,21.03
2023-03-12T01:38:15.140Z,16.77
2023-03-12T01:53:19.730Z,24.53
2023-03-12T02:08:25.455Z,34.67
2023-03-12T02:23:34.590Z,36.37
2023-03-12T02:38:43.985Z,30.13
2023-03-12T02:53:54.598Z,48.70
2023-03-12T03:09:00.065Z,45.70
2023-03-12T03:24:05.461Z,34.27
2023-03-12T03:39:10.134Z,53.17
2023-03-12T03:54:15.150Z,38.90
2023-03-12T04:09:21.210Z,51.53
2023-03-12T04:24:25.867Z,49.10
2023-03-12T04:39:30.443Z,55.97
2023-03-12T04:54:36.009Z,56.17
2023-03-12T05:09:40.503Z,45.30
2023-03-12T05:54:55.394Z,42.47
2023-03-12T06:10:00.827Z,62.83
2023-03-12T06:25:06.395Z,38.40
2023-03-12T06:40:13.782Z,62.57
2023-03-12T06:55:18.365Z,63.53
2023-03-12T07:10:23.076Z,63.53
2023-03-12T07:25:27.754Z,61.63
2023-03-12T07:40:32.348Z,49.20
2023-03-12T07:55:36.784Z,57.67
2023-03-12T08:10:41.290Z,60.43
2023-03-12T08:25:48.193Z,51.50
2023-03-12T08:40:58.254Z,47.83
2023-03-12T08:56:03.825Z,48.80
2023-03-12T09:11:09.583Z,62.30
2023-03-12T09:26:14.971Z,57.97
2023-03-12T09:41:22.201Z,42.57
2023-03-12T09:56:28.321Z,39.03
2023-03-12T10:11:45.195Z,36.13
2023-03-12T10:26:52.258Z,28.60
2023-03-12T10:41:57.691Z,34.13
2023-03-12T10:57:02.781Z,30.27
2023-03-12T11:12:24.685Z,24.17
2023-03-12T11:27:42.761Z,32.57
2023-03-12T11:43:00.854Z,33.90
2023-03-12T11:58:21.856Z,30.90
2023-03-12T12:13:32.126Z,22.40
2023-03-12T12:28:55.449Z,35.00
2023-03-12T12:44:03.478Z,23.73
2023-03-12T12:59:30.546Z,28.37
2023-03-12T13:14:41.193Z,35.03
2023-03-12T13:29:46.660Z,14.80
2023-03-12T13:44:52.096Z,21.77
2023-03-12T13:59:58.582Z,28.37
2023-03-12T14:15:16.281Z,22.30
2023-03-12T14:30:24.973Z,24.80
2023-03-12T14:45:30.000Z,13.00
2023-03-12T15:00:35.155Z,8.77
2023-03-12T15:15:43.222Z,9.77
2023-03-12T15:30:47.737Z,15.10
2023-03-12T15:46:01.298Z,12.97
2023-03-12T16:01:11.149Z,16.30
2023-03-12T16:16:16.544Z,12.27
2023-03-12T16:31:21.124Z,20.87
2023-03-12T16:46:28.493Z,23.53
2023-03-12T17:01:33.298Z,21.67
2023-03-12T17:16:37.868Z,33.73
2023-03-12T17:31:42.349Z,33.60
2023-03-12T17:46:58.495Z,33.73
2023-03-12T18:02:04.039Z,40.07
2023-03-12T18:17:08.491Z,29.50
2023-03-12T18:32:13.592Z,40.03
2023-03-12T18:47:18.114Z,73.27
2023-03-12T19:02:22.589Z,28.00
2023-03-12T19:17:28.531Z,36.70
2023-03-12T19:32:42.518Z,40.13
2023-03-12T19:47:49.749Z,27.17
2023-03-12T20:02:54.424Z,19.20
2023-03-12T20:17:59.317Z,10.00
2023-03-12T20:33:05.724Z,13.70
2023-03-12T20:48:11.872Z,13.50
2023-03-12T21:03:16.858Z,3.77
2023-03-12T21:18:21.337Z,3.70
2023-03-12T21:33:26.016Z,9.17
2023-03-12T21:48:30.497Z,4.83
2023-03-12T22:03:35.095Z,2.33
2023-03-12T22:18:41.333Z,2.20
2023-03-12T22:33:46.263Z,2.97
2023-03-12T22:48:55.227Z,2.37
2023-03-12T23:03:59.785Z,2.50
2023-03-12T23:19:04.292Z,1.47
2023-03-12T23:34:09.993Z,2.97
2023-03-12T23:49:14.544Z,1.60
